createdAt,value
2019-01-08T00:00:13.932Z,9.95
2019-01-08T00:00:46.377Z,9.48
2019-01-08T00:01:18.833Z,10.38
2019-01-08T00:01:51.691Z,9.65
2019-01-08T00:02:24.154Z,9.98
2019-01-08T00:02:56.609Z,11.08
2019-01-08T00:03:29.064Z,10.05
2019-01-08T00:04:01.533Z,9.60
2019-01-08T00:04:34.013Z,9.75
2019-01-08T00:05:06.475Z,9.58
2019-01-08T00:05:38.943Z,10.40
2019-01-08T00:06:11.760Z,10.60
2019-01-08T00:06:44.221Z,10.18
2019-01-08T00:07:17.616Z,8.70
2019-01-08T00:07:50.921Z,9.43
2019-01-08T00:08:23.385Z,9.85
2019-01-08T00:08:55.835Z,9.85
2019-01-08T00:09:28.293Z,10.63
2019-01-08T00:10:01.193Z,9.45
2019-01-08T00:10:33.649Z,9.43
2019-01-08T00:11:06.470Z,9.58
2019-01-08T00:11:38.928Z,9.45
2019-01-08T00:12:11.399Z,10.93
2019-01-08T00:12:44.470Z,9.08
2019-01-08T00:13:17.201Z,10.00
2019-01-08T00:13:49.667Z,9.63
2019-01-08T00:14:22.786Z,9.75
2019-01-08T00:14:55.656Z,9.43
2019-01-08T00:15:28.066Z,10.50
2019-01-08T00:16:00.531Z,10.20
2019-01-08T00:16:32.991Z,9.93
2019-01-08T00:17:05.453Z,10.03
2019-01-08T00:17:37.923Z,10.18
2019-01-08T00:18:10.378Z,9.73
2019-01-08T00:18:43.190Z,9.58
2019-01-08T00:19:15.642Z,9.70
2019-01-08T00:19:48.085Z,10.05
2019-01-08T00:20:20.537Z,9.93
2019-01-08T00:20:53.041Z,9.93
2019-01-08T00:21:25.788Z,10.25
2019-01-08T00:21:58.871Z,10.30
2019-01-08T00:22:31.321Z,8.98
2019-01-08T00:23:04.171Z,8.85
2019-01-08T00:23:36.690Z,9.93
2019-01-08T00:24:09.085Z,10.05
2019-01-08T00:24:41.875Z,11.50
2019-01-08T00:25:14.329Z,10.08
2019-01-08T00:25:47.204Z,9.33
2019-01-08T00:26:19.706Z,9.98
2019-01-08T00:26:52.156Z,9.20
2019-01-08T00:27:24.958Z,9.50
2019-01-08T00:27:57.432Z,9.63
2019-01-08T00:28:29.885Z,9.75
2019-01-08T00:29:02.341Z,10.20
2019-01-08T00:29:34.799Z,9.85
2019-01-08T00:30:07.258Z,10.25
2019-01-08T00:30:40.110Z,9.43
2019-01-08T00:31:12.583Z,10.68
2019-01-08T00:31:45.361Z,9.80
2019-01-08T00:32:17.827Z,10.50
2019-01-08T00:32:50.565Z,10.90
2019-01-08T00:33:23.024Z,10.00
2019-01-08T00:33:55.473Z,10.38
2019-01-08T00:34:28.226Z,9.65
2019-01-08T00:35:00.840Z,10.48
2019-01-08T00:35:33.299Z,10.18
2019-01-08T00:36:05.753Z,10.10
2019-01-08T00:36:38.219Z,9.43
2019-01-08T00:37:10.736Z,10.40
2019-01-08T00:37:43.197Z,10.10
2019-01-08T00:38:15.658Z,10.00
2019-01-08T00:38:48.486Z,10.68
2019-01-08T00:39:20.925Z,10.80
2019-01-08T00:39:53.929Z,9.45
2019-01-08T00:40:26.391Z,10.40
2019-01-08T00:40:58.855Z,10.55
2019-01-08T00:41:31.310Z,9.83
2019-01-08T00:42:04.145Z,10.60
2019-01-08T00:42:37.377Z,10.28
2019-01-08T00:43:09.839Z,8.78
2019-01-08T00:43:42.675Z,10.98
2019-01-08T00:44:15.251Z,10.32
2019-01-08T00:44:47.714Z,10.08
2019-01-08T00:45:20.165Z,9.45
2019-01-08T00:45:52.626Z,9.63
2019-01-08T00:46:25.073Z,9.55
2019-01-08T00:46:57.525Z,9.53
2019-01-08T00:47:29.994Z,9.30
2019-01-08T00:48:02.506Z,9.15
2019-01-08T00:48:34.953Z,9.55
2019-01-08T00:49:07.430Z,8.68
2019-01-08T00:49:39.887Z,9.55
2019-01-08T00:50:12.488Z,9.20
2019-01-08T00:50:45.231Z,9.93
2019-01-08T00:51:17.694Z,8.45
2019-01-08T00:51:50.165Z,8.90
2019-01-08T00:52:23.026Z,8.60
2019-01-08T00:52:55.586Z,8.65
2019-01-08T00:53:28.069Z,8.38
2019-01-08T00:54:00.547Z,8.48
2019-01-08T00:54:33.291Z,8.85
2019-01-08T00:55:05.742Z,8.18
2019-01-08T00:55:38.198Z,7.90
2019-01-08T00:56:10.667Z,8.93
2019-01-08T00:56:43.117Z,8.33
2019-01-08T00:57:15.873Z,7.70
2019-01-08T00:57:48.631Z,8.45
2019-01-08T00:58:21.082Z,7.45
2019-01-08T00:58:53.965Z,8.28
2019-01-08T00:59:26.741Z,8.25
2019-01-08T00:59:59.212Z,7.35
2019-01-08T01:00:31.671Z,7.37
2019-01-08T01:01:04.138Z,7.80
2019-01-08T01:01:36.868Z,8.40
2019-01-08T01:02:09.799Z,7.95
2019-01-08T01:02:42.269Z,8.35
2019-01-08T01:03:14.721Z,8.75
2019-01-08T01:03:47.191Z,8.48
2019-01-08T01:04:20.137Z,7.72
2019-01-08T01:04:53.355Z,7.85
2019-01-08T01:05:26.175Z,8.20
2019-01-08T01:05:58.625Z,8.10
2019-01-08T01:06:31.103Z,8.15
2019-01-08T01:07:03.563Z,7.55
2019-01-08T01:07:36.005Z,7.70
2019-01-08T01:08:08.470Z,7.90
2019-01-08T01:08:40.937Z,7.78
2019-01-08T01:09:13.403Z,7.65
2019-01-08T01:09:45.887Z,7.75
2019-01-08T01:10:18.328Z,7.85
2019-01-08T01:10:50.785Z,7.83
2019-01-08T01:11:23.610Z,7.65
2019-01-08T01:11:56.072Z,8.48
2019-01-08T01:12:28.521Z,6.33
2019-01-08T01:13:00.977Z,8.43
2019-01-08T01:13:33.437Z,8.03
2019-01-08T01:14:05.902Z,7.28
2019-01-08T01:14:40.469Z,7.78
2019-01-08T01:15:13.339Z,7.20
2019-01-08T01:15:45.782Z,7.10
2019-01-08T01:16:18.567Z,7.35
2019-01-08T01:16:51.025Z,7.20
2019-01-08T01:17:23.499Z,7.00
2019-01-08T01:17:56.366Z,7.35
2019-01-08T01:18:28.951Z,7.25
2019-01-08T01:19:01.407Z,7.78
2019-01-08T01:19:33.875Z,7.35
2019-01-08T01:20:06.555Z,6.55
2019-01-08T01:20:39.034Z,6.92
2019-01-08T01:21:11.801Z,7.55
2019-01-08T01:21:44.545Z,6.60
2019-01-08T01:22:17.015Z,6.10
2019-01-08T01:22:49.812Z,6.65
2019-01-08T01:23:22.199Z,6.65
2019-01-08T01:23:55.354Z,6.80
2019-01-08T01:24:27.819Z,6.55
2019-01-08T01:25:00.599Z,7.20
2019-01-08T01:25:33.144Z,6.90
2019-01-08T01:26:05.645Z,6.30
2019-01-08T01:26:39.110Z,6.10
2019-01-08T01:27:11.557Z,6.30
2019-01-08T01:27:44.021Z,6.08
2019-01-08T01:28:16.739Z,6.78
2019-01-08T01:28:49.182Z,6.62
2019-01-08T01:29:21.641Z,6.53
2019-01-08T01:29:54.442Z,6.30
2019-01-08T01:30:26.892Z,5.95
2019-01-08T01:30:59.746Z,6.72
2019-01-08T01:31:32.243Z,5.87
2019-01-08T01:32:04.979Z,5.90
2019-01-08T01:32:37.445Z,6.05
2019-01-08T01:33:10.173Z,6.30
2019-01-08T01:33:42.639Z,6.05
2019-01-08T01:34:15.109Z,5.97
2019-01-08T01:34:47.702Z,6.15
2019-01-08T01:35:20.170Z,5.30
2019-01-08T01:35:52.629Z,5.75
2019-01-08T01:36:25.104Z,6.35
2019-01-08T01:36:57.585Z,5.47
2019-01-08T01:37:30.342Z,5.33
2019-01-08T01:38:02.812Z,5.47
2019-01-08T01:38:35.254Z,5.85
2019-01-08T01:39:07.708Z,5.60
2019-01-08T01:39:40.159Z,5.80
2019-01-08T01:40:12.630Z,5.67
2019-01-08T01:40:45.438Z,6.55
2019-01-08T01:41:18.173Z,5.95
2019-01-08T01:41:51.337Z,5.10
2019-01-08T01:42:23.854Z,5.15
2019-01-08T01:42:56.324Z,5.58
2019-01-08T01:43:28.785Z,5.20
2019-01-08T01:44:01.238Z,6.33
2019-01-08T01:44:33.953Z,6.08
2019-01-08T01:45:06.390Z,5.60
2019-01-08T01:45:39.221Z,5.62
2019-01-08T01:46:11.689Z,4.90
2019-01-08T01:46:44.303Z,5.20
2019-01-08T01:47:17.037Z,5.30
2019-01-08T01:47:49.535Z,5.08
2019-01-08T01:48:22.514Z,5.55
2019-01-08T01:48:54.880Z,5.50
2019-01-08T01:49:27.353Z,5.30
2019-01-08T01:50:00.150Z,5.22
2019-01-08T01:50:32.937Z,4.90
2019-01-08T01:51:05.415Z,5.20
2019-01-08T01:51:38.280Z,5.42
2019-01-08T01:52:10.998Z,5.00
2019-01-08T01:52:43.462Z,5.28
2019-01-08T01:53:15.977Z,4.53
2019-01-08T01:53:48.450Z,5.00
2019-01-08T01:54:21.216Z,4.92
2019-01-08T01:54:54.347Z,4.83
2019-01-08T01:55:27.078Z,4.97
2019-01-08T01:55:59.530Z,4.95
2019-01-08T01:56:32.401Z,5.45
2019-01-08T01:57:04.801Z,5.22
2019-01-08T01:57:37.258Z,5.65
2019-01-08T01:58:10.036Z,5.20
2019-01-08T01:58:42.513Z,5.60
2019-01-08T01:59:14.971Z,4.55
2019-01-08T01:59:47.437Z,5.12
2019-01-08T02:00:20.173Z,4.70
2019-01-08T02:00:52.643Z,4.90
2019-01-08T02:01:25.838Z,5.17
2019-01-08T02:01:58.574Z,5.03
2019-01-08T02:02:31.076Z,4.60
2019-01-08T02:03:03.918Z,4.90
2019-01-08T02:03:36.367Z,4.80
2019-01-08T02:04:08.891Z,4.72
2019-01-08T02:04:41.348Z,4.83
2019-01-08T02:05:13.797Z,4.67
2019-01-08T02:05:46.253Z,4.55
2019-01-08T02:06:18.719Z,4.45
2019-01-08T02:06:51.165Z,4.60
2019-01-08T02:07:23.673Z,4.70
2019-01-08T02:07:56.139Z,4.95
2019-01-08T02:08:28.945Z,4.03
2019-01-08T02:09:01.407Z,4.47
2019-01-08T02:09:33.895Z,4.45
2019-01-08T02:10:06.570Z,4.87
2019-01-08T02:10:39.108Z,4.25
2019-01-08T02:11:11.488Z,4.85
2019-01-08T02:11:43.945Z,4.72
2019-01-08T02:12:16.905Z,4.97
2019-01-08T02:12:49.345Z,4.30
2019-01-08T02:13:21.819Z,4.65
2019-01-08T02:13:54.576Z,4.78
2019-01-08T02:14:27.041Z,4.17
2019-01-08T02:14:59.545Z,4.53
2019-01-08T02:15:31.988Z,4.60
2019-01-08T02:16:04.442Z,4.45
2019-01-08T02:16:36.907Z,4.87
2019-01-08T02:17:09.379Z,4.50
2019-01-08T02:17:41.831Z,4.53
2019-01-08T02:18:14.649Z,4.67
2019-01-08T02:18:47.108Z,5.00
2019-01-08T02:19:19.553Z,4.92
2019-01-08T02:19:52.004Z,4.70
2019-01-08T02:20:24.497Z,4.70
2019-01-08T02:20:56.960Z,4.45
2019-01-08T02:21:29.431Z,4.45
2019-01-08T02:22:01.884Z,4.70
2019-01-08T02:22:34.333Z,5.22
2019-01-08T02:23:06.796Z,5.40
2019-01-08T02:23:39.255Z,4.87
2019-01-08T02:24:11.718Z,4.40
2019-01-08T02:24:44.173Z,4.60
2019-01-08T02:25:16.647Z,4.00
2019-01-08T02:25:49.150Z,5.20
2019-01-08T02:26:21.624Z,5.40
2019-01-08T02:26:54.448Z,4.50
2019-01-08T02:27:27.502Z,4.80
2019-01-08T02:28:00.243Z,4.45
2019-01-08T02:28:32.708Z,5.00
2019-01-08T02:29:05.174Z,4.67
2019-01-08T02:29:37.633Z,4.70
2019-01-08T02:30:10.513Z,4.55
2019-01-08T02:30:43.542Z,4.60
2019-01-08T02:31:16.145Z,3.70
2019-01-08T02:31:48.597Z,4.60
2019-01-08T02:32:22.126Z,4.67
2019-01-08T02:32:54.763Z,4.15
2019-01-08T02:33:27.219Z,4.35
2019-01-08T02:33:59.688Z,4.25
2019-01-08T02:34:32.160Z,4.22
2019-01-08T02:35:04.997Z,4.72
2019-01-08T02:35:37.458Z,4.65
2019-01-08T02:36:09.966Z,4.80
2019-01-08T02:36:42.411Z,4.83
2019-01-08T02:37:14.897Z,4.55
2019-01-08T02:37:47.622Z,4.33
2019-01-08T02:38:20.074Z,5.00
2019-01-08T02:38:52.533Z,5.28
2019-01-08T02:39:25.003Z,4.58
2019-01-08T02:39:57.454Z,4.70
2019-01-08T02:40:29.898Z,4.50
2019-01-08T02:41:02.646Z,4.25
2019-01-08T02:41:35.375Z,5.12
2019-01-08T02:42:08.269Z,5.20
2019-01-08T02:42:41.027Z,4.65
2019-01-08T02:43:13.500Z,4.70
2019-01-08T02:43:45.947Z,4.90
2019-01-08T02:44:18.705Z,4.60
2019-01-08T02:44:51.254Z,4.70
2019-01-08T02:45:23.693Z,3.95
2019-01-08T02:45:56.190Z,4.15
2019-01-08T02:46:28.673Z,4.78
2019-01-08T02:47:01.436Z,4.40
2019-01-08T02:47:33.929Z,5.00
2019-01-08T02:48:06.382Z,4.42
2019-01-08T02:48:38.839Z,4.95
2019-01-08T02:49:11.289Z,4.80
2019-01-08T02:49:43.768Z,5.10
2019-01-08T02:50:16.368Z,5.00
2019-01-08T02:50:48.818Z,4.60
2019-01-08T02:51:21.272Z,5.08
2019-01-08T02:51:53.756Z,5.80
2019-01-08T02:52:26.224Z,5.35
2019-01-08T02:52:58.706Z,4.58
2019-01-08T02:53:31.465Z,5.60
2019-01-08T02:54:03.922Z,5.10
2019-01-08T02:54:36.797Z,4.70
2019-01-08T02:55:09.258Z,4.95
2019-01-08T02:55:42.127Z,5.20
2019-01-08T02:56:14.604Z,5.28
2019-01-08T02:56:47.352Z,5.40
2019-01-08T02:57:20.124Z,5.40
2019-01-08T02:57:53.107Z,5.28
2019-01-08T02:58:25.596Z,5.30
2019-01-08T02:58:58.054Z,4.90
2019-01-08T02:59:30.511Z,5.30
2019-01-08T03:00:04.124Z,5.45
2019-01-08T03:00:36.853Z,5.95
2019-01-08T03:01:09.309Z,5.85
2019-01-08T03:01:41.768Z,5.25
2019-01-08T03:02:14.235Z,5.65
2019-01-08T03:02:47.015Z,6.15
2019-01-08T03:03:19.486Z,5.83
2019-01-08T03:03:52.174Z,5.75
2019-01-08T03:04:24.617Z,5.50
2019-01-08T03:04:57.091Z,5.05
2019-01-08T03:05:29.562Z,5.28
2019-01-08T03:06:02.014Z,5.33
2019-01-08T03:06:34.770Z,5.22
2019-01-08T03:07:07.494Z,4.60
2019-01-08T03:07:39.958Z,5.17
2019-01-08T03:08:12.410Z,4.95
2019-01-08T03:08:44.875Z,4.42
2019-01-08T03:09:17.637Z,5.00
2019-01-08T03:09:50.606Z,5.12
2019-01-08T03:10:23.074Z,5.17
2019-01-08T03:10:55.514Z,5.22
2019-01-08T03:11:27.964Z,5.37
2019-01-08T03:12:00.431Z,5.40
2019-01-08T03:12:33.196Z,5.05
2019-01-08T03:13:05.646Z,4.90
2019-01-08T03:13:38.113Z,5.05
2019-01-08T03:14:11.278Z,5.00
2019-01-08T03:14:44.091Z,5.08
2019-01-08T03:15:16.810Z,5.45
2019-01-08T03:15:49.625Z,5.35
2019-01-08T03:16:22.074Z,4.83
2019-01-08T03:16:54.533Z,5.10
2019-01-08T03:17:27.008Z,5.30
2019-01-08T03:17:59.467Z,6.15
2019-01-08T03:18:31.926Z,5.00
2019-01-08T03:19:04.382Z,5.35
2019-01-08T03:19:37.191Z,5.10
2019-01-08T03:20:09.691Z,5.22
2019-01-08T03:20:42.148Z,6.28
2019-01-08T03:21:14.744Z,4.90
2019-01-08T03:21:47.498Z,5.50
2019-01-08T03:22:19.978Z,5.28
2019-01-08T03:22:52.861Z,4.97
2019-01-08T03:23:25.320Z,4.72
2019-01-08T03:23:58.407Z,5.70
2019-01-08T03:24:30.879Z,5.50
2019-01-08T03:25:03.473Z,5.20
2019-01-08T03:25:35.965Z,4.95
2019-01-08T03:26:08.419Z,6.20
2019-01-08T03:26:40.886Z,5.08
2019-01-08T03:27:13.331Z,6.40
2019-01-08T03:27:45.812Z,5.10
2019-01-08T03:28:18.583Z,5.15
2019-01-08T03:28:51.510Z,5.00
2019-01-08T03:29:23.975Z,5.90
2019-01-08T03:29:56.437Z,5.30
2019-01-08T03:30:28.906Z,5.08
2019-01-08T03:31:01.686Z,5.67
2019-01-08T03:31:34.528Z,5.70
2019-01-08T03:32:06.996Z,6.05
2019-01-08T03:32:39.824Z,5.17
2019-01-08T03:33:12.300Z,5.50
2019-01-08T03:33:44.746Z,4.85
2019-01-08T03:34:17.220Z,4.72
2019-01-08T03:34:49.691Z,4.60
2019-01-08T03:35:22.160Z,5.53
2019-01-08T03:35:54.629Z,5.40
2019-01-08T03:36:27.182Z,5.03
2019-01-08T03:36:59.908Z,5.22
2019-01-08T03:37:32.383Z,5.78
2019-01-08T03:38:04.845Z,5.22
2019-01-08T03:38:37.587Z,5.05
2019-01-08T03:39:10.363Z,5.22
2019-01-08T03:39:42.802Z,5.45
2019-01-08T03:40:15.280Z,5.85
2019-01-08T03:40:47.736Z,5.28
2019-01-08T03:41:20.215Z,5.28
2019-01-08T03:41:52.689Z,4.80
2019-01-08T03:42:25.604Z,5.22
2019-01-08T03:42:58.139Z,5.05
2019-01-08T03:43:30.593Z,4.47
2019-01-08T03:44:03.076Z,5.28
2019-01-08T03:44:35.547Z,4.85
2019-01-08T03:45:08.022Z,5.03
2019-01-08T03:45:40.747Z,4.87
2019-01-08T03:46:13.205Z,4.08
2019-01-08T03:46:45.657Z,5.55
2019-01-08T03:47:18.158Z,4.53
2019-01-08T03:47:50.618Z,5.15
2019-01-08T03:48:23.087Z,4.67
2019-01-08T03:48:55.546Z,4.70
2019-01-08T03:49:28.002Z,4.90
2019-01-08T03:50:00.826Z,4.55
2019-01-08T03:50:33.290Z,5.28
2019-01-08T03:51:05.751Z,5.22
2019-01-08T03:51:38.215Z,5.33
2019-01-08T03:52:11.014Z,4.37
2019-01-08T03:52:43.494Z,5.17
2019-01-08T03:53:15.952Z,5.17
2019-01-08T03:53:48.681Z,5.10
2019-01-08T03:54:21.280Z,4.28
2019-01-08T03:54:53.757Z,4.30
2019-01-08T03:55:26.196Z,4.28
2019-01-08T03:55:59.247Z,4.80
2019-01-08T03:56:31.700Z,4.90
2019-01-08T03:57:04.146Z,4.92
2019-01-08T03:57:37.315Z,4.40
2019-01-08T03:58:09.807Z,4.40
2019-01-08T03:58:42.554Z,4.20
2019-01-08T03:59:15.001Z,4.10
2019-01-08T03:59:47.472Z,4.40
2019-01-08T04:00:20.221Z,4.22
2019-01-08T04:00:52.684Z,5.03
2019-01-08T04:01:25.154Z,4.60
2019-01-08T04:01:57.610Z,4.95
2019-01-08T04:02:30.079Z,3.92
2019-01-08T04:03:02.939Z,3.90
2019-01-08T04:03:35.439Z,5.25
2019-01-08T04:04:08.268Z,5.10
2019-01-08T04:04:41.031Z,5.35
2019-01-08T04:05:13.490Z,5.17
2019-01-08T04:05:45.947Z,5.55
2019-01-08T04:06:18.404Z,6.00
2019-01-08T04:06:50.867Z,5.85
2019-01-08T04:07:23.320Z,5.78
2019-01-08T04:07:56.514Z,6.72
2019-01-08T04:08:28.977Z,5.78
2019-01-08T04:09:01.611Z,6.00
2019-01-08T04:09:34.082Z,5.45
2019-01-08T04:10:07.683Z,6.25
2019-01-08T04:10:40.137Z,5.87
2019-01-08T04:11:12.611Z,5.97
2019-01-08T04:11:45.065Z,6.08
2019-01-08T04:12:17.528Z,6.10
2019-01-08T04:12:49.977Z,6.90
2019-01-08T04:13:22.852Z,6.85
2019-01-08T04:13:55.310Z,6.25
2019-01-08T04:14:27.801Z,6.80
2019-01-08T04:15:00.435Z,5.62
2019-01-08T04:15:32.890Z,6.05
2019-01-08T04:16:05.353Z,6.28
2019-01-08T04:16:37.813Z,5.70
2019-01-08T04:17:10.301Z,5.80
2019-01-08T04:17:42.755Z,6.20
2019-01-08T04:18:15.504Z,6.80
2019-01-08T04:18:47.983Z,6.45
2019-01-08T04:19:20.833Z,6.20
2019-01-08T04:19:53.630Z,6.70
2019-01-08T04:20:26.085Z,5.92
2019-01-08T04:20:58.546Z,6.45
2019-01-08T04:21:31.311Z,7.60
2019-01-08T04:22:03.775Z,6.90
2019-01-08T04:22:36.277Z,6.28
2019-01-08T04:23:08.778Z,6.67
2019-01-08T04:23:41.372Z,6.17
2019-01-08T04:24:13.948Z,6.03
2019-01-08T04:24:46.424Z,6.80
2019-01-08T04:25:18.902Z,7.05
2019-01-08T04:25:51.379Z,9.03
2019-01-08T04:26:23.829Z,7.37
2019-01-08T04:26:56.278Z,7.00
2019-01-08T04:27:29.231Z,7.47
2019-01-08T04:28:02.252Z,7.37
2019-01-08T04:28:34.709Z,7.20
2019-01-08T04:29:07.157Z,6.47
2019-01-08T04:29:39.971Z,7.20
2019-01-08T04:30:12.429Z,6.95
2019-01-08T04:30:45.299Z,6.65
2019-01-08T04:31:18.173Z,7.42
2019-01-08T04:31:50.616Z,7.12
2019-01-08T04:32:23.065Z,7.37
2019-01-08T04:32:55.512Z,6.70
2019-01-08T04:33:28.450Z,6.33
2019-01-08T04:34:00.900Z,6.35
2019-01-08T04:34:33.991Z,7.00
2019-01-08T04:35:06.583Z,6.50
2019-01-08T04:35:39.442Z,5.92
2019-01-08T04:36:11.925Z,5.95
2019-01-08T04:36:44.396Z,5.80
2019-01-08T04:37:16.858Z,4.85
2019-01-08T04:37:49.607Z,6.00
2019-01-08T04:38:22.414Z,5.50
2019-01-08T04:38:54.869Z,5.25
2019-01-08T04:39:27.328Z,4.90
2019-01-08T04:40:00.190Z,5.85
2019-01-08T04:40:32.656Z,6.08
2019-01-08T04:41:05.528Z,5.25
2019-01-08T04:41:38.015Z,5.00
2019-01-08T04:42:10.478Z,5.58
2019-01-08T04:42:42.958Z,5.33
2019-01-08T04:43:15.409Z,6.33
2019-01-08T04:43:47.893Z,5.67
2019-01-08T04:44:20.357Z,5.85
2019-01-08T04:44:52.817Z,4.87
2019-01-08T04:45:25.287Z,5.40
2019-01-08T04:45:57.741Z,6.22
2019-01-08T04:46:30.207Z,5.65
2019-01-08T04:47:02.687Z,5.08
2019-01-08T04:47:35.142Z,5.20
2019-01-08T04:48:07.589Z,5.75
2019-01-08T04:48:40.911Z,5.78
2019-01-08T04:49:13.361Z,5.00
2019-01-08T04:49:46.332Z,5.05
2019-01-08T04:50:19.064Z,5.90
2019-01-08T04:50:51.528Z,5.10
2019-01-08T04:51:23.988Z,4.72
2019-01-08T04:51:56.457Z,5.40
2019-01-08T04:52:30.585Z,4.37
2019-01-08T04:53:03.658Z,5.35
2019-01-08T04:53:36.132Z,5.70
2019-01-08T04:54:08.589Z,4.70
2019-01-08T04:54:41.045Z,4.92
2019-01-08T04:55:13.856Z,6.22
2019-01-08T04:55:46.310Z,6.12
2019-01-08T04:56:18.765Z,6.53
2019-01-08T04:56:51.246Z,6.08
2019-01-08T04:57:24.154Z,5.90
2019-01-08T04:57:56.633Z,4.83
2019-01-08T04:58:29.093Z,5.95
2019-01-08T04:59:01.561Z,5.10
2019-01-08T04:59:34.310Z,4.92
2019-01-08T05:00:07.630Z,5.62
2019-01-08T05:00:41.681Z,6.15
2019-01-08T05:01:14.180Z,6.10
2019-01-08T05:01:46.934Z,5.80
2019-01-08T05:02:19.394Z,5.42
2019-01-08T05:02:51.845Z,5.40
2019-01-08T05:03:24.395Z,6.55
2019-01-08T05:03:56.859Z,5.92
2019-01-08T05:04:29.667Z,5.00
2019-01-08T05:05:02.146Z,5.75
2019-01-08T05:05:34.616Z,5.25
2019-01-08T05:06:07.487Z,5.30
2019-01-08T05:06:39.943Z,5.22
2019-01-08T05:07:12.393Z,6.65
2019-01-08T05:07:44.852Z,6.20
2019-01-08T05:08:17.316Z,5.10
2019-01-08T05:08:49.794Z,5.25
2019-01-08T05:09:22.263Z,5.75
2019-01-08T05:09:54.723Z,4.70
2019-01-08T05:10:27.187Z,5.40
2019-01-08T05:11:00.119Z,5.58
2019-01-08T05:11:32.582Z,5.22
2019-01-08T05:12:05.041Z,5.20
2019-01-08T05:12:37.517Z,6.40
2019-01-08T05:13:09.971Z,4.75
2019-01-08T05:13:42.424Z,5.47
2019-01-08T05:14:14.926Z,4.92
2019-01-08T05:14:47.725Z,5.08
2019-01-08T05:15:20.208Z,5.87
2019-01-08T05:15:52.674Z,5.35
2019-01-08T05:16:25.123Z,6.08
2019-01-08T05:16:57.582Z,5.20
2019-01-08T05:17:30.742Z,5.72
2019-01-08T05:18:03.239Z,5.50
2019-01-08T05:18:35.668Z,5.28
2019-01-08T05:19:08.592Z,6.12
2019-01-08T05:19:41.022Z,5.80
2019-01-08T05:20:13.478Z,5.20
2019-01-08T05:20:46.383Z,6.17
2019-01-08T05:21:18.830Z,5.25
2019-01-08T05:21:51.294Z,4.92
2019-01-08T05:22:23.805Z,6.25
2019-01-08T05:22:56.578Z,5.50
2019-01-08T05:23:29.424Z,5.30
2019-01-08T05:24:02.031Z,5.37
2019-01-08T05:24:34.498Z,5.03
2019-01-08T05:25:07.015Z,5.30
2019-01-08T05:25:39.474Z,4.78
2019-01-08T05:26:11.944Z,4.95
2019-01-08T05:26:44.813Z,5.12
2019-01-08T05:27:17.285Z,5.22
2019-01-08T05:27:49.767Z,5.47
2019-01-08T05:28:22.631Z,5.05
2019-01-08T05:28:55.142Z,5.37
2019-01-08T05:29:28.065Z,5.40
2019-01-08T05:30:07.796Z,5.10
2019-01-08T05:30:35.140Z,4.90
2019-01-08T05:31:07.879Z,4.53
2019-01-08T05:31:40.348Z,4.08
2019-01-08T05:32:12.810Z,4.83
2019-01-08T05:32:45.262Z,4.60
2019-01-08T05:33:23.941Z,5.80
2019-01-08T05:33:56.867Z,5.10
2019-01-08T05:34:29.839Z,4.70
2019-01-08T05:35:02.650Z,5.28
2019-01-08T05:35:35.181Z,4.35
2019-01-08T05:36:07.684Z,4.95
2019-01-08T05:36:40.139Z,5.00
2019-01-08T05:37:12.630Z,5.00
2019-01-08T05:37:45.636Z,4.97
2019-01-08T05:38:18.626Z,5.30
2019-01-08T05:38:51.482Z,5.03
2019-01-08T05:39:23.953Z,5.17
2019-01-08T05:39:56.673Z,4.62
2019-01-08T05:40:29.204Z,5.25
2019-01-08T05:41:01.728Z,5.45
2019-01-08T05:41:34.338Z,6.12
2019-01-08T05:42:06.799Z,4.80
2019-01-08T05:42:39.627Z,5.30
2019-01-08T05:43:12.146Z,5.53
2019-01-08T05:43:44.593Z,5.58
2019-01-08T05:44:17.049Z,5.22
2019-01-08T05:44:49.893Z,4.58
2019-01-08T05:45:22.578Z,5.37
2019-01-08T05:45:55.035Z,5.12
2019-01-08T05:46:27.489Z,4.53
2019-01-08T05:47:00.157Z,5.42
2019-01-08T05:47:32.614Z,4.87
2019-01-08T05:48:05.194Z,5.05
2019-01-08T05:48:37.611Z,4.67
2019-01-08T05:49:10.062Z,4.50
2019-01-08T05:49:43.003Z,4.97
2019-01-08T05:50:15.449Z,5.67
2019-01-08T05:50:48.573Z,4.97
2019-01-08T05:51:21.034Z,5.00
2019-01-08T05:51:54.248Z,5.03
2019-01-08T05:52:26.734Z,5.45
2019-01-08T05:52:59.496Z,4.62
2019-01-08T05:53:31.958Z,5.17
2019-01-08T05:54:04.442Z,4.95
2019-01-08T05:54:36.888Z,4.87
2019-01-08T05:55:09.357Z,4.70
2019-01-08T05:55:42.353Z,4.58
2019-01-08T05:56:14.817Z,4.08
2019-01-08T05:56:47.279Z,4.85
2019-01-08T05:57:20.017Z,4.60
2019-01-08T05:57:52.519Z,4.60
2019-01-08T05:58:24.985Z,4.90
2019-01-08T05:58:57.449Z,4.28
2019-01-08T05:59:29.909Z,4.83
2019-01-08T06:00:02.404Z,4.60
2019-01-08T06:00:34.849Z,5.10
2019-01-08T06:01:07.327Z,4.85
2019-01-08T06:01:40.093Z,5.30
2019-01-08T06:02:12.567Z,4.45
2019-01-08T06:02:45.378Z,4.30
2019-01-08T06:03:17.883Z,5.10
2019-01-08T06:03:50.387Z,4.45
2019-01-08T06:04:22.854Z,5.58
2019-01-08T06:04:55.312Z,4.72
2019-01-08T06:05:27.783Z,4.78
2019-01-08T06:06:00.247Z,4.90
2019-01-08T06:06:33.280Z,4.37
2019-01-08T06:07:06.215Z,5.10
2019-01-08T06:07:38.739Z,4.30
2019-01-08T06:08:11.241Z,4.97
2019-01-08T06:08:43.752Z,4.10
2019-01-08T06:09:16.205Z,4.50
2019-01-08T06:09:49.173Z,5.05
2019-01-08T06:10:22.102Z,3.95
2019-01-08T06:10:54.570Z,5.25
2019-01-08T06:11:27.054Z,4.60
2019-01-08T06:11:59.580Z,4.35
2019-01-08T06:12:31.990Z,4.25
2019-01-08T06:13:04.471Z,5.22
2019-01-08T06:13:36.942Z,4.25
2019-01-08T06:14:09.443Z,5.20
2019-01-08T06:14:41.907Z,4.17
2019-01-08T06:15:14.384Z,4.35
2019-01-08T06:15:46.833Z,3.62
2019-01-08T06:16:19.307Z,4.95
2019-01-08T06:16:51.787Z,4.47
2019-01-08T06:17:24.240Z,4.60
2019-01-08T06:17:56.703Z,4.70
2019-01-08T06:18:29.574Z,4.25
2019-01-08T06:19:02.376Z,4.75
2019-01-08T06:19:34.874Z,4.50
2019-01-08T06:20:07.643Z,4.67
2019-01-08T06:20:40.104Z,5.40
2019-01-08T06:21:12.579Z,4.80
2019-01-08T06:21:45.048Z,4.35
2019-01-08T06:22:17.516Z,4.47
2019-01-08T06:22:49.978Z,4.12
2019-01-08T06:23:22.437Z,4.00
2019-01-08T06:23:54.919Z,4.15
2019-01-08T06:24:27.391Z,4.70
2019-01-08T06:25:00.673Z,4.55
2019-01-08T06:25:33.341Z,4.40
2019-01-08T06:26:05.803Z,4.58
2019-01-08T06:26:38.254Z,4.55
2019-01-08T06:27:10.717Z,4.62
2019-01-08T06:27:43.194Z,4.17
2019-01-08T06:28:16.214Z,4.50
2019-01-08T06:28:48.695Z,4.67
2019-01-08T06:29:21.105Z,4.12
2019-01-08T06:29:53.929Z,4.40
2019-01-08T06:30:26.429Z,3.72
2019-01-08T06:30:58.877Z,4.92
2019-01-08T06:31:31.321Z,3.90
2019-01-08T06:32:03.785Z,4.12
2019-01-08T06:32:36.991Z,4.45
2019-01-08T06:33:09.454Z,4.00
2019-01-08T06:33:41.916Z,5.30
2019-01-08T06:34:14.386Z,4.58
2019-01-08T06:34:46.943Z,3.90
2019-01-08T06:35:19.429Z,3.85
2019-01-08T06:35:51.928Z,4.08
2019-01-08T06:36:26.236Z,4.45
2019-01-08T06:36:58.962Z,3.90
2019-01-08T06:37:31.425Z,3.55
2019-01-08T06:38:03.895Z,4.58
2019-01-08T06:38:37.238Z,4.92
2019-01-08T06:39:09.719Z,3.45
2019-01-08T06:39:42.173Z,4.25
2019-01-08T06:40:14.650Z,4.50
2019-01-08T06:40:47.124Z,4.50
2019-01-08T06:41:20.108Z,5.30
2019-01-08T06:41:52.884Z,4.55
2019-01-08T06:42:25.359Z,5.45
2019-01-08T06:42:57.826Z,4.92
2019-01-08T06:43:30.292Z,4.70
2019-01-08T06:44:02.772Z,4.37
2019-01-08T06:44:35.218Z,4.80
2019-01-08T06:45:07.685Z,4.87
2019-01-08T06:45:40.156Z,3.80
2019-01-08T06:46:12.626Z,5.15
2019-01-08T06:46:45.382Z,4.10
2019-01-08T06:47:18.220Z,3.70
2019-01-08T06:47:50.690Z,4.62
2019-01-08T06:48:23.149Z,3.72
2019-01-08T06:48:56.001Z,4.00
2019-01-08T06:49:28.780Z,3.72
2019-01-08T06:50:01.256Z,4.60
2019-01-08T06:50:33.709Z,4.20
2019-01-08T06:51:06.475Z,4.05
2019-01-08T06:51:38.953Z,4.70
2019-01-08T06:52:11.725Z,4.03
2019-01-08T06:52:44.203Z,3.83
2019-01-08T06:53:16.720Z,3.65
2019-01-08T06:53:51.158Z,4.00
2019-01-08T06:54:24.837Z,3.80
2019-01-08T06:54:57.432Z,3.45
2019-01-08T06:55:30.267Z,4.25
2019-01-08T06:56:03.045Z,3.42
2019-01-08T06:56:35.498Z,3.15
2019-01-08T06:57:07.975Z,4.37
2019-01-08T06:57:40.497Z,4.35
2019-01-08T06:58:12.967Z,4.10
2019-01-08T06:58:45.440Z,3.60
2019-01-08T06:59:17.893Z,4.20
2019-01-08T06:59:50.625Z,4.55
2019-01-08T07:00:23.099Z,4.05
2019-01-08T07:00:56.112Z,3.40
2019-01-08T07:01:28.578Z,3.35
2019-01-08T07:02:01.042Z,3.72
2019-01-08T07:02:33.506Z,4.55
2019-01-08T07:03:06.031Z,4.15
2019-01-08T07:03:38.491Z,3.30
2019-01-08T07:04:11.621Z,3.30
2019-01-08T07:04:44.440Z,4.00
2019-01-08T07:05:16.901Z,3.20
2019-01-08T07:05:49.365Z,3.80
2019-01-08T07:06:21.838Z,3.77
2019-01-08T07:06:54.288Z,3.80
2019-01-08T07:07:26.757Z,3.47
2019-01-08T07:07:59.624Z,3.62
2019-01-08T07:08:32.136Z,3.40
2019-01-08T07:09:06.064Z,3.20
2019-01-08T07:09:38.522Z,3.67
2019-01-08T07:10:11.354Z,3.45
2019-01-08T07:10:43.819Z,3.20
2019-01-08T07:11:16.266Z,3.12
2019-01-08T07:11:48.741Z,3.20
2019-01-08T07:12:21.185Z,3.40
2019-01-08T07:12:53.666Z,3.60
2019-01-08T07:13:26.126Z,3.15